Terminal Aerodrome Forecast
Issued by NWS

Current Version | Previous Version | Text Only | Print | Product List | Glossary On
Versions: 1 2 3 4 5 6 7 8 9 10 11 12 13 14 15 16 17 18 19 20 21 22 23 24 25 26 27 28 29 30
246 FTUS41 KOKX 090230 AAA TAFHPN TAF AMD KHPN 090230Z 0903/0924 29012G20KT P6SM SCT250 FM091400 29015G23KT P6SM SCT040 FM091700 30018G26KT P6SM BKN040 AMD NOT SKED=

USA.gov is the U.S. government's official web portal to all federal, state and local government web resources and services.